Date,TemperatureHighF,TemperatureAvgF,TemperatureLowF,DewpointHighF,DewpointAvgF,DewpointLowF,HumidityHigh,HumidityAvg,HumidityLow,PressureMaxIn,PressureMinIn,WindSpeedMaxMPH,WindSpeedAvgMPH,GustSpeedMaxMPH,PrecipitationSumIn
2013-1-1,42,28,23,27,20,17,85,72,47,30.06,29.88,10,5,14,0.00
2013-1-2,48,33,21,26,21,16,86,65,31,30.08,29.99,11,4,17,0.00
2013-1-3,34,34,31,24,21,21,73,61,60,30.21,30.06,8,4,11,0.00
2013-1-4,34,31,28,29,27,24,93,84,73,30.21,30.05,15,6,23,0.01
2013-1-5,59,40,26,26,19,11,86,52,21,30.15,29.98,20,9,27,0.00
2013-1-6,58,38,23,26,19,13,76,51,22,30.24,30.06,8,3,11,0.00
2013-1-7,55,38,25,26,20,15,71,52,24,30.06,29.85,12,4,19,0.00
2013-1-8,56,39,27,40,31,21,92,74,52,29.95,29.79,7,2,10,0.00
2013-1-9,45,40,35,41,35,26,99,84,56,30.10,29.83,30,13,42,0.89
2013-1-10,41,40,39,40,40,39,99,98,96,29.87,29.75,17,8,23,0.02
2013-1-11,64,49,39,45,33,12,91,56,32,29.72,29.59,18,8,26,0.00
2013-1-12,46,37,25,28,19,7,77,52,31,29.86,29.70,16,9,21,0.00
2013-1-13,38,27,22,20,16,12,80,64,42,30.03,29.86,12,6,15,0.00
2013-1-14,29,23,19,12,8,3,65,51,35,30.06,29.96,14,8,19,0.00
2013-1-15,39,27,18,15,11,7,70,54,32,30.04,29.97,13,4,17,0.00
2013-1-16,54,34,19,26,18,10,70,55,32,30.15,30.00,15,6,22,0.00
2013-1-17,61,42,30,28,23,18,73,53,23,30.32,30.15,11,4,15,0.00
2013-1-18,62,44,30,32,26,18,78,54,22,30.26,29.99,19,8,28,0.00
2013-1-19,70,48,31,30,21,12,79,44,14,30.09,29.94,13,6,19,0.00
2013-1-20,66,46,28,27,19,14,67,40,17,30.09,29.91,14,5,21,0.00
2013-1-21,56,37,27,26,22,18,84,58,29,30.15,29.98,15,6,18,0.00
2013-1-22,68,44,25,40,26,16,76,56,17,30.06,29.95,17,6,23,0.00
2013-1-23,78,50,30,32,20,11,77,41,13,30.07,29.96,17,6,22,0.00
2013-1-24,78,57,37,24,18,11,49,27,13,30.04,29.89,14,8,22,0.00
2013-1-25,62,51,39,34,29,24,69,46,28,30.05,29.88,14,6,21,0.00
2013-1-26,69,51,36,48,36,27,83,60,34,30.00,29.82,11,4,17,0.00
2013-1-27,74,61,51,54,45,28,99,67,22,29.84,29.73,30,14,40,0.02
2013-1-28,75,60,45,53,28,16,79,37,16,29.80,29.63,26,8,30,0.00
2013-1-29,54,46,32,33,26,4,78,49,24,29.70,29.49,36,12,47,0.07
2013-1-30,50,37,26,25,11,0,75,41,21,29.97,29.71,21,9,30,0.00
2013-1-31,65,44,27,25,13,3,58,33,17,30.09,29.90,17,7,24,0.00
2013-2-1,66,43,24,28,20,11,89,49,17,30.09,29.88,22,8,30,0.00
2013-2-2,65,47,33,25,17,10,60,35,17,30.16,29.93,18,7,25,0.00
2013-2-3,61,48,33,46,29,18,79,50,27,30.16,29.78,17,8,24,0.00
2013-2-4,66,52,40,46,24,11,84,42,16,29.84,29.70,20,8,27,0.00
2013-2-5,74,52,34,31,17,11,51,31,13,29.86,29.77,16,6,23,0.00
2013-2-6,74,54,36,43,28,14,99,47,14,29.83,29.66,18,6,27,0.00
2013-2-7,62,53,45,28,23,17,44,33,24,29.99,29.70,30,12,35,0.00
2013-2-8,61,51,41,20,18,11,37,30,20,30.03,29.85,11,5,21,0.00
2013-2-9,73,53,36,43,27,8,61,41,17,29.85,29.46,27,9,36,0.00
2013-2-10,60,45,34,15,9,3,35,26,20,29.85,29.66,22,9,32,0.00
2013-2-11,56,43,33,28,19,2,62,41,24,29.95,29.77,20,10,27,0.00
2013-2-12,41,36,28,37,32,25,99,84,62,29.94,29.72,20,6,27,0.09
2013-2-13,59,40,28,28,21,12,93,55,21,29.94,29.80,21,6,26,0.00
2013-2-14,64,44,28,34,21,15,79,46,18,30.01,29.80,23,6,32,0.00
2013-2-15,51,36,28,33,22,11,82,60,27,30.20,30.01,21,8,28,0.00
2013-2-16,67,43,25,27,17,7,75,43,16,30.20,29.91,16,6,23,0.00
2013-2-17,73,50,28,25,13,9,50,29,13,29.90,29.61,24,11,31,0.00
2013-2-18,57,44,35,33,24,10,65,48,21,29.95,29.59,17,10,24,0.00
2013-2-19,57,44,32,41,19,11,98,44,21,30.03,29.85,14,6,23,0.12
2013-2-20,43,40,36,42,39,36,99,97,91,29.85,29.46,22,10,28,0.21
2013-2-21,56,41,31,38,33,27,99,75,46,29.79,29.48,36,10,41,0.14
2013-2-22,54,36,23,29,24,18,93,64,33,29.90,29.78,12,5,17,0.00
2013-2-23,62,42,25,28,19,9,89,49,19,29.84,29.63,20,7,25,0.00
2013-2-24,71,50,36,32,22,12,75,42,14,29.63,29.43,31,11,44,0.02
2013-2-25,37,32,28,31,27,23,96,83,63,29.78,29.52,36,16,46,0.59
2013-2-26,72,41,23,35,23,15,77,56,16,29.76,29.60,12,5,20,0.00
2013-2-27,47,37,29,28,25,21,83,62,43,30.09,29.76,22,10,30,0.00
2013-2-28,60,40,27,27,22,16,78,54,23,30.14,30.01,11,3,17,0.00
2013-3-1,57,42,28,30,20,11,80,49,21,30.14,30.02,18,5,29,0.00
2013-3-2,69,48,29,28,21,15,74,42,16,30.20,30.02,15,6,22,0.00
2013-3-3,83,58,36,24,18,11,53,30,12,30.01,29.61,26,12,38,0.00
2013-3-4,82,65,44,38,21,13,63,24,12,29.94,29.54,34,12,47,0.06
2013-3-5,61,43,32,30,18,8,70,43,20,30.24,29.95,34,8,52,0.05
2013-3-6,65,47,29,18,12,6,45,29,17,30.15,29.88,16,7,25,0.00
2013-3-7,80,56,35,39,20,14,55,30,14,29.92,29.80,19,7,26,0.00
2013-3-8,80,62,51,53,45,34,81,60,23,29.85,29.67,24,10,34,0.00
2013-3-9,66,58,44,54,32,12,92,48,17,29.71,29.58,30,15,45,0.00
2013-3-10,51,42,35,29,16,5,67,38,22,29.97,29.71,30,15,40,0.00
2013-3-11,72,48,25,19,12,4,51,29,13,29.98,29.78,19,7,29,0.00
2013-3-12,60,50,40,30,21,12,65,36,22,30.16,29.77,29,14,39,0.00
2013-3-13,72,51,33,34,24,17,78,44,16,30.21,30.05,16,5,24,0.00
2013-3-14,84,61,41,34,24,14,55,31,12,30.09,29.95,17,5,29,0.00
2013-3-15,88,66,42,37,25,12,64,30,12,30.00,29.71,21,9,29,0.00
2013-3-16,79,64,49,40,32,16,61,37,15,29.72,29.62,16,10,22,0.00
2013-3-17,78,58,41,40,32,17,75,47,14,29.75,29.52,27,9,36,0.08
2013-3-18,75,57,44,33,24,11,60,34,14,29.88,29.58,24,8,30,0.00
2013-3-19,67,51,39,39,32,22,73,52,24,30.02,29.79,20,7,26,0.00
2013-3-20,68,52,37,38,27,15,89,49,17,30.15,29.78,13,6,22,0.00
2013-3-21,82,63,47,45,27,12,84,36,12,29.78,29.41,29,12,43,0.06
2013-3-22,64,50,39,43,36,13,99,65,19,29.74,29.50,20,8,27,0.00
2013-3-23,77,51,30,42,29,11,92,57,13,29.89,29.47,35,13,50,0.90
2013-3-24,55,36,24,18,9,-2,61,38,21,30.04,29.87,19,9,36,0.00
2013-3-25,61,38,22,20,10,-1,55,34,21,30.16,29.98,14,5,20,0.00
2013-3-26,64,45,26,18,11,6,46,30,18,30.17,29.94,23,8,33,0.00
2013-3-27,83,58,35,37,22,12,53,31,13,29.96,29.81,22,10,27,0.00
2013-3-28,88,64,44,44,32,14,85,42,12,29.95,29.83,14,6,21,0.00
2013-3-29,81,64,51,54,49,33,92,63,23,29.94,29.81,14,7,21,0.01
2013-3-30,89,67,50,50,36,16,95,47,12,29.88,29.75,14,5,16,0.00
2013-3-31,81,63,51,45,42,35,78,50,23,29.95,29.75,31,8,39,0.00
2013-4-1,87,65,47,54,41,21,77,51,14,29.90,29.70,28,8,35,0.00
2013-4-2,56,40,35,49,38,34,99,92,77,29.93,29.82,21,14,28,0.00
2013-4-3,50,40,34,35,33,29,96,77,54,30.02,29.91,18,10,24,0.00
2013-4-4,75,50,29,38,28,14,87,55,14,30.05,29.93,17,5,20,0.00
2013-4-5,82,60,36,41,28,13,86,43,12,30.01,29.75,21,8,30,0.00
2013-4-6,84,66,49,42,35,24,69,39,16,29.78,29.69,17,9,27,0.00
2013-4-7,88,68,48,44,30,14,71,36,12,29.73,29.53,21,8,33,0.00
2013-4-8,88,72,52,49,24,16,63,23,12,29.58,29.40,27,12,36,0.05
2013-4-9,82,62,35,61,40,14,87,51,13,29.78,29.41,28,16,41,0.02
2013-4-10,56,38,22,21,14,6,84,43,21,29.91,29.75,21,11,33,0.00
2013-4-11,72,50,30,21,15,11,51,30,13,29.83,29.62,21,5,26,0.00
2013-4-12,81,63,47,41,23,12,52,28,13,29.82,29.66,20,6,26,0.00
2013-4-13,59,55,46,42,41,38,76,60,54,29.78,29.74,10,4,15,0.00
2013-4-14,88,71,58,44,30,13,56,33,12,30.07,29.62,27,9,34,0.00
2013-4-15,89,70,51,31,22,14,48,22,12,30.08,29.73,21,9,29,0.00
2013-4-16,83,65,50,49,34,15,67,37,19,30.17,29.85,17,9,26,0.00
2013-4-17,91,71,44,62,39,11,89,49,11,30.07,29.60,30,13,40,0.04
2013-4-18,55,45,32,36,19,11,75,43,21,30.51,29.88,24,14,37,0.00
2013-4-19,54,54,54,11,11,11,21,21,21,30.45,30.45,8,8,18,0.00
2013-4-20,69,55,54,19,12,11,21,21,17,30.45,30.01,15,9,23,0.00
2013-4-21,86,66,43,37,22,13,49,24,12,30.29,29.99,15,5,25,0.00
2013-4-22,92,71,49,48,33,12,78,38,11,30.27,29.80,23,9,30,0.00
2013-4-23,72,41,33,40,28,23,79,63,32,30.64,29.85,30,17,41,0.00
2013-4-24,70,46,28,23,19,12,69,41,15,30.79,30.37,14,7,20,0.00
2013-4-25,74,57,41,47,31,16,59,40,27,30.62,30.25,16,6,26,0.00
2013-4-26,88,69,53,51,38,15,85,45,12,30.34,30.07,22,12,31,0.00
2013-4-27,88,67,49,45,35,21,78,41,13,30.46,30.06,17,5,26,0.00
2013-4-28,88,69,50,54,35,24,58,35,14,30.30,29.80,20,8,27,0.00
2013-4-29,90,73,54,47,36,21,71,35,12,30.14,29.67,20,10,29,0.00
2013-4-30,98,76,58,57,40,21,74,38,12,29.97,29.72,29,9,42,0.00
2013-5-1,78,66,42,54,42,32,75,46,23,30.46,29.87,29,17,44,0.01
2013-5-2,50,42,36,34,27,20,82,58,36,30.81,30.46,33,21,46,0.04
2013-5-3,73,50,30,20,15,11,55,31,13,30.80,30.16,16,6,21,0.00
2013-5-4,82,60,38,22,16,9,46,23,12,30.32,30.01,14,5,20,0.00
2013-5-5,75,59,40,34,19,10,59,27,14,30.52,30.14,13,5,22,0.00
2013-5-6,75,60,48,50,39,23,79,50,31,30.50,30.21,14,6,24,0.07
2013-5-7,88,66,48,53,47,35,95,59,21,30.41,29.92,14,7,25,0.00
2013-5-8,88,72,56,60,39,13,87,45,12,30.21,29.85,21,9,30,0.00
2013-5-9,86,68,54,53,37,17,75,39,14,30.19,29.90,23,7,27,0.01
2013-5-10,66,57,53,54,50,46,96,77,59,30.51,30.12,20,8,24,0.30
2013-5-11,78,62,50,52,46,38,92,62,31,30.62,30.37,14,3,24,0.00
2013-5-12,84,66,49,48,40,22,91,49,15,30.61,30.22,13,5,21,0.00
2013-5-13,87,70,54,43,34,19,61,33,13,30.50,30.12,21,9,27,0.00
2013-5-14,88,71,56,52,44,27,69,43,20,30.34,29.87,24,10,31,0.00
2013-5-15,96,71,59,56,48,36,81,51,18,30.11,29.73,19,8,30,0.02
2013-5-16,99,76,55,60,45,19,98,46,11,30.09,29.66,16,6,22,0.00
2013-5-17,103,80,56,62,44,20,92,43,11,30.01,29.65,15,4,27,0.00
2013-5-18,100,85,68,59,36,16,55,25,11,29.99,29.00,117,11,117,0.00
2013-5-19,90,79,65,29,21,14,25,15,11,30.01,26.58,117,12,117,0.00
2013-5-20,92,76,58,31,23,12,33,18,11,30.01,29.69,24,6,35,0.00
2013-5-21,85,70,60,54,41,14,63,39,15,30.12,29.91,29,10,116,0.00
2013-5-22,96,75,55,47,38,27,62,35,13,30.13,29.68,20,8,30,0.00
2013-5-23,102,79,66,64,53,26,73,49,11,30.17,29.77,30,12,42,0.39
2013-5-24,87,74,62,60,54,48,74,52,33,30.30,30.09,23,8,30,0.00
2013-5-25,89,75,65,61,58,48,85,61,36,30.37,29.92,28,7,40,0.00
2013-5-26,97,80,62,64,56,34,80,50,22,30.14,29.94,28,13,42,0.06
2013-5-27,98,82,68,67,57,27,86,55,12,29.95,29.72,21,12,28,0.00
2013-5-28,84,75,68,66,63,55,83,68,42,30.18,29.69,21,10,31,0.00
2013-5-29,94,80,69,65,45,18,87,44,11,29.89,29.45,29,14,42,0.00
2013-5-30,96,82,68,65,40,16,86,37,11,29.98,29.65,24,10,35,0.00
2013-5-31,100,84,68,64,38,21,77,31,11,29.93,29.68,18,10,35,0.00
2013-6-1,86,77,67,64,38,18,79,30,13,30.14,29.79,24,12,34,0.00
2013-6-2,89,74,59,51,44,33,61,38,23,30.37,29.90,15,7,21,0.00
2013-6-3,98,82,66,61,53,45,85,42,22,30.24,29.74,19,9,33,0.05
2013-6-4,105,88,71,60,46,19,62,33,11,30.10,29.68,18,9,29,0.00
2013-6-5,92,80,56,63,53,20,99,43,14,30.22,29.78,32,13,43,0.58
2013-6-6,79,67,61,62,59,58,93,77,53,30.24,29.94,23,10,34,0.02
2013-6-7,86,71,61,63,57,46,97,67,28,30.18,29.97,12,4,20,0.00
2013-6-8,89,76,61,65,59,53,89,61,38,30.29,29.80,16,9,26,0.18
2013-6-9,89,89,89,58,58,58,38,38,38,29.80,29.80,12,12,19,0.18
2013-6-10,89,89,89,58,58,58,38,38,38,29.80,29.80,12,12,19,0.18
2013-6-11,89,89,89,58,58,58,38,38,38,29.80,29.80,12,12,19,0.18
2013-6-12,89,89,89,58,58,58,38,38,38,29.80,29.80,12,12,19,0.18
2013-6-13,96,83,69,66,60,54,74,51,29,30.21,29.80,21,7,32,0.12
2013-6-14,85,73,67,66,63,58,91,73,46,30.31,29.96,14,5,24,0.05
2013-6-15,93,77,68,67,64,59,94,70,36,30.28,29.80,12,6,24,0.05
2013-6-16,99,83,68,69,64,58,95,60,31,30.05,29.78,15,6,22,0.00
2013-6-17,102,80,62,70,64,56,90,63,26,30.07,29.75,48,8,63,0.99
2013-6-18,89,75,64,64,60,56,87,63,36,30.20,29.89,19,6,26,0.00
2013-6-19,87,75,68,67,63,51,88,68,44,30.00,29.76,26,10,32,0.47
2013-6-20,96,80,71,66,60,49,75,54,27,30.03,29.75,20,10,33,0.01
2013-6-21,95,83,73,66,61,43,75,53,25,30.04,29.79,25,11,41,0.22
2013-6-22,99,84,68,64,59,56,65,48,31,29.95,29.70,21,11,30,0.00
2013-6-23,101,85,71,60,56,37,56,41,15,30.22,29.76,18,10,27,0.00
2013-6-24,98,84,71,65,61,56,70,50,33,30.18,29.84,20,11,31,0.00
2013-6-25,108,87,72,64,55,32,65,44,11,30.25,29.79,19,9,30,0.00
2013-6-26,114,90,73,65,54,32,75,41,11,30.11,29.79,15,8,23,0.00
2013-6-27,106,90,74,65,53,26,69,38,11,30.21,29.85,14,6,20,0.00
2013-6-28,105,90,74,59,50,35,53,32,13,30.35,29.94,21,6,31,0.00
2013-6-29,105,85,69,62,54,35,74,41,13,30.32,29.94,32,7,42,0.12
2013-6-30,91,83,67,64,60,54,88,49,35,30.35,29.89,13,6,19,0.38
2013-7-1,87,77,69,59,53,44,64,47,29,30.38,30.04,18,7,23,0.00
2013-7-2,89,76,62,52,44,34,65,38,20,30.33,29.99,17,5,22,0.00
2013-7-3,92,76,64,47,42,36,51,35,18,30.38,29.93,14,5,21,0.00
2013-7-4,93,78,62,56,49,41,80,42,22,30.31,29.90,24,8,30,0.15
2013-7-5,97,82,66,56,50,44,60,39,23,30.11,29.71,17,7,27,0.00
2013-7-6,97,82,70,57,50,41,56,38,20,30.16,29.80,17,8,27,0.00
2013-7-7,97,83,69,60,51,46,54,38,22,30.25,29.91,14,6,24,0.00
2013-7-8,99,82,69,62,56,50,63,45,23,30.36,29.98,12,5,21,0.00
2013-7-9,97,84,71,61,59,54,65,47,31,30.36,29.93,17,8,24,0.00
2013-7-10,100,85,72,64,58,52,61,44,24,30.42,29.91,14,6,20,0.00
2013-7-11,101,85,71,60,56,51,59,41,24,30.30,29.86,13,5,21,0.00
2013-7-12,103,86,72,60,56,49,63,41,21,30.28,29.82,14,5,20,0.00
2013-7-13,105,86,70,57,47,26,52,31,11,30.25,29.91,11,5,18,0.00
2013-7-14,104,80,61,59,49,29,90,41,12,30.17,29.79,32,11,39,0.07
2013-7-15,75,66,60,60,58,54,99,77,51,30.28,30.07,19,10,28,0.39
2013-7-16,77,68,62,65,60,58,98,80,54,30.24,30.09,11,5,22,0.12
2013-7-17,82,70,65,68,66,63,99,90,58,30.35,30.12,13,6,22,1.28
2013-7-18,84,74,67,67,65,61,96,78,52,30.50,29.97,12,5,20,0.01
2013-7-19,88,76,65,67,63,60,97,70,42,30.37,29.88,15,6,21,0.00
2013-7-20,93,78,67,66,62,54,89,62,33,30.06,29.80,14,6,19,0.00
2013-7-21,96,80,67,66,62,56,87,59,34,30.29,29.86,17,7,27,0.00
2013-7-22,97,82,69,68,65,61,87,61,34,30.21,29.89,13,6,18,0.00
2013-7-23,100,84,71,69,65,60,84,58,32,30.22,29.84,13,6,18,0.00
2013-7-24,98,85,72,68,65,61,79,55,34,30.26,29.87,14,5,22,0.00
2013-7-25,89,80,72,68,64,60,77,62,45,30.29,29.96,14,7,21,0.00
2013-7-26,89,79,72,69,63,52,85,61,32,30.42,29.99,18,8,30,0.00
2013-7-27,94,78,64,64,56,42,88,53,22,30.39,29.89,9,4,15,0.00
2013-7-28,96,79,64,66,56,53,73,49,29,30.32,29.84,14,6,22,0.00
2013-7-29,97,81,71,69,65,60,88,63,33,30.18,29.83,17,8,30,0.00
2013-7-30,97,84,71,67,64,62,77,55,36,30.23,29.90,15,7,20,0.00
2013-7-31,99,85,72,70,66,60,84,57,33,30.31,30.03,12,5,19,0.00
2013-8-1,98,81,73,71,64,60,74,59,34,30.38,30.01,17,5,27,0.00
2013-8-2,104,86,70,64,53,36,72,42,14,30.22,29.83,20,7,25,0.00
2013-8-3,104,87,70,61,51,36,60,37,14,30.13,29.83,16,7,21,0.00
2013-8-4,99,84,69,63,56,49,64,43,22,30.30,29.91,14,5,19,0.00
2013-8-5,100,83,70,65,58,37,65,49,15,30.31,29.87,13,6,22,0.00
2013-8-6,107,87,72,63,55,43,59,37,12,30.19,29.80,17,7,26,0.00
2013-8-7,104,84,71,64,58,37,76,46,14,30.17,29.83,27,6,34,0.09
2013-8-8,100,83,69,63,58,37,77,49,15,30.21,29.83,15,6,24,0.05
2013-8-9,91,78,66,62,60,58,80,58,38,30.27,30.10,14,8,21,0.00
2013-8-10,96,78,65,63,60,54,88,60,30,30.41,30.12,13,6,17,0.00
2013-8-11,97,77,69,68,63,55,90,65,32,30.33,30.07,27,4,33,0.20
2013-8-12,94,82,69,68,65,61,93,61,38,30.40,30.01,11,4,17,0.00
2013-8-13,93,93,93,62,62,62,39,39,39,30.01,30.01,4,4,14,0.00
2013-8-14,96,82,69,68,62,51,83,55,24,30.20,29.78,9,4,14,3.70
2013-8-15,96,76,64,68,65,61,98,73,36,30.23,29.87,10,3,46,0.97
2013-8-16,93,77,67,66,63,58,90,66,37,30.17,29.91,19,6,34,0.00
2013-8-17,93,77,64,66,61,55,94,64,34,30.22,29.80,11,5,17,0.00
2013-8-18,95,78,64,64,60,56,87,59,34,30.16,29.76,13,5,19,0.00
2013-8-19,97,80,65,62,60,55,81,56,28,30.13,29.76,12,5,19,0.00
2013-8-20,96,80,67,62,59,53,79,53,28,30.06,29.78,12,5,17,0.00
2013-8-21,93,78,65,63,57,52,71,52,30,30.15,29.85,11,4,17,0.00
2013-8-22,98,80,63,64,59,54,77,53,29,30.18,29.83,10,4,14,0.00
2013-8-23,96,81,68,65,60,52,81,54,27,30.21,29.83,11,4,19,0.00
2013-8-24,94,80,66,66,61,55,87,58,33,30.21,29.91,9,4,21,0.00
2013-8-25,96,82,68,63,60,56,78,53,33,30.24,29.96,10,4,17,0.00
2013-8-26,93,80,67,63,60,54,78,54,32,30.26,29.90,12,4,17,0.00
2013-8-27,95,78,63,65,59,53,83,56,30,30.16,29.83,10,3,14,0.00
2013-8-28,93,78,68,66,60,53,85,58,33,30.19,29.88,17,6,23,0.00
2013-8-29,97,80,65,60,55,50,71,47,24,30.18,29.85,16,6,27,0.00
2013-8-30,101,83,67,60,55,50,68,44,23,30.16,29.75,14,6,20,0.00
2013-8-31,102,83,67,60,53,37,64,41,15,29.98,29.75,12,5,20,0.00
2013-9-1,104,84,70,61,53,35,56,40,13,30.07,29.79,16,5,21,0.00
2013-9-2,94,81,68,66,61,54,93,55,32,30.15,29.93,24,7,30,0.35
2013-9-3,98,81,65,63,57,48,80,50,22,30.34,29.79,9,3,17,0.00
2013-9-4,101,82,66,61,52,30,74,43,13,30.20,29.86,11,3,16,0.00
2013-9-5,100,80,64,56,47,29,61,37,13,30.24,29.92,9,2,16,0.00
2013-9-6,100,82,68,62,57,49,73,48,22,30.27,29.83,11,3,14,0.00
2013-9-7,98,81,68,61,56,53,65,47,27,30.16,29.82,13,5,20,0.00
2013-9-8,96,80,65,62,57,51,78,51,26,30.14,29.80,11,3,16,0.00
2013-9-9,90,77,64,63,59,53,86,58,32,30.15,29.80,14,5,23,0.00
2013-9-10,87,76,65,64,61,57,84,63,44,30.12,29.82,15,6,25,0.00
2013-9-11,88,75,68,65,62,58,88,67,42,30.24,29.85,15,5,20,0.00
2013-9-12,91,77,62,63,58,53,87,57,31,30.27,29.84,14,4,21,0.00
2013-9-13,92,78,66,65,57,51,82,53,30,30.22,29.78,13,4,20,0.00
2013-9-14,92,76,62,67,58,50,99,63,29,30.01,29.71,12,4,21,0.00
2013-9-15,92,78,66,60,55,48,65,48,27,30.13,29.84,14,6,23,0.00
2013-9-16,92,75,65,66,60,55,84,63,37,30.27,29.92,15,4,21,0.05
2013-9-17,83,74,65,67,63,59,95,72,49,30.31,29.86,16,6,21,0.00
2013-9-18,89,76,64,66,61,55,91,65,36,30.10,29.69,17,8,25,0.00
2013-9-19,77,71,67,68,64,60,90,78,63,30.05,29.81,13,6,21,0.02
2013-9-20,73,67,58,65,60,55,95,80,57,30.11,29.94,19,9,27,0.01
2013-9-21,86,68,52,55,50,44,92,59,29,30.28,29.78,10,4,13,0.00
2013-9-22,86,69,53,56,46,36,85,51,23,29.94,29.59,14,6,21,0.00
2013-9-23,88,71,56,49,36,21,66,38,13,29.93,29.66,18,8,24,0.00
2013-9-24,93,72,58,49,42,33,68,39,17,30.28,29.79,19,6,24,0.00
2013-9-25,93,75,60,53,43,30,65,40,15,29.97,29.52,15,6,22,0.00
2013-9-26,97,79,64,56,51,34,68,44,15,29.91,29.52,19,9,25,0.00
2013-9-27,91,75,61,65,60,53,85,63,36,30.04,29.56,20,8,31,0.00
2013-9-28,76,65,54,66,46,35,82,54,26,30.22,29.70,23,9,29,0.11
2013-9-29,84,64,45,46,41,35,77,50,23,30.28,29.82,13,4,24,0.00
2013-9-30,92,72,53,46,34,19,74,37,11,29.98,29.63,22,8,28,0.00
2013-10-1,97,75,56,55,42,27,78,41,12,30.14,29.66,14,7,19,0.00
2013-10-2,99,75,59,61,45,26,85,46,11,30.01,29.63,14,5,17,0.00
2013-10-3,94,77,60,64,54,39,96,55,20,29.98,29.58,21,9,27,0.00
2013-10-4,92,77,66,63,45,18,85,45,11,29.90,29.64,27,10,34,0.00
2013-10-5,74,58,45,42,25,16,50,33,15,30.35,29.92,25,10,35,0.00
2013-10-6,83,61,41,31,22,12,55,31,12,30.32,30.00,12,4,17,0.00
2013-10-7,89,66,45,30,26,18,52,28,12,30.41,29.93,8,3,13,0.00
2013-10-8,87,66,48,36,28,16,61,32,12,30.14,29.79,17,6,24,0.00
2013-10-9,88,69,54,50,40,33,56,40,21,30.07,29.78,14,7,20,0.00
2013-10-10,87,71,52,56,50,46,84,54,31,30.05,29.68,18,8,31,0.00
2013-10-11,82,68,52,55,34,21,73,36,15,30.06,29.80,24,8,33,0.00
2013-10-12,88,65,48,42,31,23,51,33,16,30.24,29.86,12,4,15,0.00
2013-10-13,63,59,55,61,56,42,99,88,52,30.27,30.01,16,7,25,1.10
2013-10-14,82,69,63,65,60,53,97,76,45,30.14,29.80,20,9,27,0.00
2013-10-15,68,55,50,63,43,35,90,65,54,30.33,30.06,21,10,29,0.00
2013-10-16,66,52,45,41,38,34,84,62,36,30.40,30.20,16,5,18,0.00
2013-10-17,67,55,43,54,48,39,96,79,56,30.32,29.97,15,7,21,0.00
2013-10-18,68,63,53,57,47,36,97,63,33,30.07,30.01,15,9,24,0.00
2013-10-19,68,68,68,38,38,38,37,37,37,30.03,30.03,11,11,24,0.00
2013-10-20,68,68,68,38,38,38,37,37,37,30.03,30.03,11,11,24,0.00
2013-10-21,84,65,45,62,38,34,71,41,37,30.03,29.72,11,9,24,0.00
2013-10-22,77,57,42,41,34,21,79,51,18,30.16,29.85,14,6,21,0.00
2013-10-23,80,61,45,37,29,15,67,40,14,30.12,29.82,21,8,29,0.00
2013-10-24,74,58,44,43,38,30,75,51,24,30.10,29.90,14,6,24,0.00
2013-10-25,66,53,40,51,43,35,84,70,52,30.23,29.95,12,5,16,0.01
2013-10-26,77,61,51,53,47,38,91,64,28,29.97,29.75,18,6,22,0.00
2013-10-27,74,56,39,44,35,24,80,52,20,30.04,29.75,11,4,14,0.00
2013-10-28,82,64,49,62,54,43,99,75,42,29.88,29.58,17,8,23,0.00
2013-10-29,78,69,65,63,61,56,90,77,49,29.88,29.60,17,9,24,0.00
2013-10-30,74,68,59,64,56,38,91,71,32,29.68,29.49,18,10,29,0.05
2013-10-31,70,58,49,55,26,14,86,36,15,29.80,29.53,20,10,28,0.01
2013-11-1,70,57,47,30,25,17,53,33,17,30.07,29.67,24,10,30,0.00
2013-11-2,69,52,36,32,27,18,70,44,20,30.27,29.85,14,4,17,0.00
2013-11-3,66,52,39,43,34,28,84,55,29,29.96,29.51,20,10,33,0.00
2013-11-4,81,58,42,52,46,40,92,68,31,29.86,29.61,13,5,21,0.00
2013-11-5,77,61,46,55,48,35,89,66,28,29.89,29.61,20,10,30,0.00
2013-11-6,68,49,37,35,22,11,68,41,16,30.24,29.90,17,6,27,0.00
2013-11-7,65,47,31,28,21,16,64,41,19,30.43,30.11,11,5,17,0.00
2013-11-8,63,48,35,43,31,22,94,58,26,30.24,29.82,21,10,27,0.00
2013-11-9,79,55,42,48,38,25,99,65,18,30.02,29.83,15,7,23,0.00
2013-11-10,73,52,41,51,44,38,99,78,42,30.21,29.92,9,4,12,0.00
2013-11-11,77,56,45,54,48,43,99,79,34,30.15,29.90,17,6,23,0.01
2013-11-12,55,39,31,52,22,6,97,58,22,30.75,30.13,24,12,40,0.01
2013-11-13,60,42,27,19,14,6,56,36,22,30.63,30.06,13,6,20,0.00
2013-11-14,70,50,37,41,29,9,58,47,31,30.13,29.70,17,8,24,0.00
2013-11-15,76,56,34,49,36,25,70,51,27,29.97,29.56,26,8,35,0.02
2013-11-16,78,65,55,52,43,30,84,53,22,29.74,29.47,34,15,51,0.17
2013-11-17,77,62,50,44,31,16,65,38,15,29.90,29.58,27,9,34,0.00
2013-11-18,63,52,46,31,19,11,53,31,20,30.12,29.89,12,5,20,0.00
2013-11-19,72,55,37,54,39,21,88,56,40,30.09,29.62,17,6,26,0.00
2013-11-20,72,60,53,55,48,36,95,69,33,29.78,29.56,17,7,24,0.00
2013-11-21,79,54,29,56,41,19,96,68,22,30.25,29.66,27,10,36,0.00
2013-11-22,29,26,23,22,18,13,85,74,56,30.48,30.20,26,15,34,0.00
2013-11-23,30,28,25,27,22,19,91,80,65,30.56,30.24,17,5,24,0.00
2013-11-24,31,27,25,26,24,21,90,85,78,30.49,30.05,0,0,0,0.04
2013-11-25,41,32,28,31,27,24,95,83,64,30.14,29.87,17,5,23,0.06
2013-11-26,49,33,27,29,24,19,89,70,39,30.42,30.06,17,8,24,0.00
2013-11-27,52,37,25,33,27,20,84,70,44,30.45,30.03,12,5,17,0.00
2013-11-28,61,42,31,33,29,23,85,64,26,30.37,30.13,14,5,19,0.00
2013-11-29,62,44,31,37,33,28,89,69,34,30.38,29.97,14,6,20,0.00
2013-11-30,69,50,36,42,37,32,89,66,30,30.30,29.88,14,6,19,0.00
2013-12-1,71,54,44,41,34,16,79,53,16,30.13,29.75,17,6,24,0.00
2013-12-2,74,56,42,29,24,14,57,36,14,29.89,29.55,14,7,22,0.00
2013-12-3,77,60,46,28,20,12,47,26,13,29.65,29.39,19,10,29,0.00
2013-12-4,75,55,29,43,31,18,65,45,25,29.91,29.43,27,12,36,0.00
2013-12-5,29,21,18,18,10,3,77,64,45,30.24,29.92,22,12,29,0.00
2013-12-6,30,20,14,16,10,5,78,65,51,30.34,30.02,13,7,18,0.00
2013-12-7,16,13,10,9,2,-3,76,61,46,30.58,29.88,14,6,17,0.00
2013-12-8,56,32,15,34,23,9,90,73,34,30.09,29.74,17,7,22,0.00
2013-12-9,33,23,17,24,18,12,89,83,68,30.29,29.85,17,6,22,0.00
2013-12-10,49,31,15,24,13,4,86,54,22,30.43,29.95,17,7,23,0.00
2013-12-11,43,33,25,20,16,12,64,51,33,30.47,30.01,22,9,30,0.00
2013-12-12,44,33,23,30,22,14,82,65,42,30.50,30.00,12,6,18,0.00
2013-12-13,64,46,34,40,30,19,78,58,31,30.02,29.60,26,11,40,0.00
2013-12-14,52,40,29,25,19,15,64,46,26,30.17,29.82,23,10,31,0.00
2013-12-15,62,43,26,27,20,15,66,46,20,30.38,30.02,18,8,27,0.00
2013-12-16,71,47,29,26,19,14,66,40,15,30.27,29.84,13,4,16,0.00
2013-12-17,73,48,30,26,20,13,64,41,14,30.27,29.97,10,3,12,0.00
2013-12-18,70,49,31,35,26,17,70,46,17,30.25,29.74,18,8,26,0.00
2013-12-19,75,55,42,43,31,11,97,53,13,29.82,29.51,36,11,45,0.00
2013-12-20,46,36,32,34,27,14,99,71,30,29.86,29.60,17,8,23,0.76
2013-12-21,50,40,30,44,36,25,99,85,57,29.74,29.33,18,7,27,0.06
2013-12-22,48,35,28,28,24,20,83,64,40,30.24,29.70,12,5,17,0.00
2013-12-23,54,36,27,31,26,18,90,70,27,30.36,30.01,13,5,17,0.00
2013-12-24,61,40,24,36,28,21,93,70,28,30.46,29.87,22,10,32,0.00
2013-12-25,50,38,29,33,29,22,87,70,42,30.43,29.88,27,10,38,0.00
2013-12-26,55,37,24,32,22,14,77,59,23,30.39,29.93,11,4,15,0.00
2013-12-27,60,39,26,30,22,15,77,57,23,30.38,29.93,8,4,11,0.00
2013-12-28,57,39,27,40,30,22,99,71,40,30.16,29.59,19,8,24,0.00
2013-12-29,37,29,20,32,18,9,84,64,46,30.14,29.61,31,12,40,0.00
2013-12-30,55,34,18,26,16,9,73,52,22,30.32,30.06,21,7,32,0.00
2013-12-31,59,40,26,26,21,15,65,49,25,30.41,29.88,20,8,28,0.00
2014-1-1,70,46,31,30,22,15,73,47,16,30.27,29.72,27,12,36,0.01
2014-1-2,50,34,22,22,18,15,77,55,27,30.63,30.04,14,6,22,0.00